createdAt,value
2018-01-27T00:00:13.551Z,8.92
2018-01-27T00:02:41.828Z,8.92
2018-01-27T00:05:10.157Z,8.99
2018-01-27T00:07:38.411Z,9.02
2018-01-27T00:10:06.712Z,9.04
2018-01-27T00:12:34.979Z,9.11
2018-01-27T00:15:03.313Z,9.01
2018-01-27T00:17:31.654Z,8.71
2018-01-27T00:20:00.173Z,8.57
2018-01-27T00:22:28.470Z,8.37
2018-01-27T00:24:56.778Z,8.50
2018-01-27T00:27:25.095Z,8.69
2018-01-27T00:29:53.383Z,8.77
2018-01-27T00:32:21.679Z,8.77
2018-01-27T00:34:49.951Z,8.72
2018-01-27T00:37:18.260Z,8.67
2018-01-27T00:39:46.521Z,8.61
2018-01-27T00:42:14.780Z,8.66
2018-01-27T00:44:43.058Z,8.61
2018-01-27T00:47:11.336Z,8.58
2018-01-27T00:49:40.542Z,8.51
2018-01-27T00:52:08.808Z,8.52
2018-01-27T00:54:37.115Z,8.48
2018-01-27T00:57:06.234Z,8.42
2018-01-27T00:59:34.555Z,8.32
2018-01-27T01:02:02.832Z,8.24
2018-01-27T01:04:31.219Z,8.19
2018-01-27T01:06:59.494Z,8.13
2018-01-27T01:09:27.783Z,8.05
2018-01-27T01:11:56.076Z,7.98
2018-01-27T01:14:24.339Z,7.82
2018-01-27T01:16:52.646Z,7.84
2018-01-27T01:19:20.948Z,7.91
2018-01-27T01:21:49.266Z,7.92
2018-01-27T01:24:17.531Z,7.97
2018-01-27T01:26:46.423Z,7.89
2018-01-27T01:29:14.736Z,7.89
2018-01-27T01:31:43.020Z,7.77
2018-01-27T01:34:11.291Z,7.70
2018-01-27T01:36:39.606Z,7.79
2018-01-27T01:39:07.913Z,7.86
2018-01-27T01:41:36.181Z,7.92
2018-01-27T01:44:10.470Z,7.90
2018-01-27T01:46:38.739Z,7.89
2018-01-27T01:49:19.040Z,7.84
2018-01-27T01:51:47.268Z,7.99
2018-01-27T01:54:15.575Z,8.07
2018-01-27T01:56:43.868Z,8.03
2018-01-27T01:59:12.149Z,7.89
2018-01-27T02:01:40.427Z,7.72
2018-01-27T02:04:08.703Z,7.77
2018-01-27T02:06:36.990Z,7.80
2018-01-27T02:09:05.266Z,7.72
2018-01-27T02:11:33.580Z,7.57
2018-01-27T02:14:01.855Z,7.61
2018-01-27T02:16:30.164Z,7.65
2018-01-27T02:18:58.464Z,7.62
2018-01-27T02:21:26.778Z,7.56
2018-01-27T02:23:55.049Z,7.67
2018-01-27T02:26:23.366Z,7.69
2018-01-27T02:28:52.871Z,7.72
2018-01-27T02:31:21.157Z,7.82
2018-01-27T02:33:49.496Z,7.84
2018-01-27T02:36:17.751Z,7.90
2018-01-27T02:38:46.051Z,8.02
2018-01-27T02:41:14.328Z,8.16
2018-01-27T02:43:42.670Z,8.15
2018-01-27T02:46:11.030Z,8.16
2018-01-27T02:48:39.353Z,8.09
2018-01-27T02:51:07.618Z,8.17
2018-01-27T02:53:35.929Z,8.14
2018-01-27T02:56:04.882Z,8.09
2018-01-27T02:58:33.151Z,8.23
2018-01-27T03:01:01.448Z,8.19
2018-01-27T03:03:29.735Z,8.17
2018-01-27T03:05:58.036Z,7.99
2018-01-27T03:08:26.319Z,7.87
2018-01-27T03:10:54.651Z,7.97
2018-01-27T03:13:22.922Z,8.00
2018-01-27T03:15:51.218Z,7.78
2018-01-27T03:18:19.523Z,7.67
2018-01-27T03:20:47.815Z,7.60
2018-01-27T03:23:16.102Z,7.70
2018-01-27T03:25:44.378Z,7.86
2018-01-27T03:28:12.994Z,7.91
2018-01-27T03:30:41.271Z,7.99
2018-01-27T03:33:09.611Z,8.02
2018-01-27T03:35:37.852Z,8.02
2018-01-27T03:38:06.154Z,8.00
2018-01-27T03:40:34.423Z,8.08
2018-01-27T03:43:02.731Z,7.99
2018-01-27T03:45:31.004Z,8.03
2018-01-27T03:47:59.321Z,8.00
2018-01-27T03:50:27.610Z,7.81
2018-01-27T03:52:55.898Z,7.64
2018-01-27T03:55:24.162Z,7.55
2018-01-27T03:57:52.527Z,7.51
2018-01-27T04:00:20.815Z,7.41
2018-01-27T04:02:49.079Z,7.56
2018-01-27T04:05:17.374Z,7.46
2018-01-27T04:07:45.647Z,7.32
2018-01-27T04:10:13.934Z,7.12
2018-01-27T04:12:42.196Z,7.02
2018-01-27T04:15:10.492Z,6.91
2018-01-27T04:17:38.770Z,6.89
2018-01-27T04:20:07.055Z,6.94
2018-01-27T04:22:35.347Z,6.98
2018-01-27T04:25:03.619Z,7.14
2018-01-27T04:27:31.931Z,7.30
2018-01-27T04:30:00.752Z,7.37
2018-01-27T04:32:29.044Z,7.38
2018-01-27T04:34:57.338Z,7.44
2018-01-27T04:37:25.618Z,7.47
2018-01-27T04:39:53.903Z,7.51
2018-01-27T04:42:23.098Z,7.59
2018-01-27T04:44:51.398Z,7.53
2018-01-27T04:47:19.687Z,7.58
2018-01-27T04:49:48.003Z,7.51
2018-01-27T04:52:16.284Z,7.56
2018-01-27T04:54:44.589Z,7.52
2018-01-27T04:57:12.850Z,7.52
2018-01-27T04:59:41.173Z,7.67
2018-01-27T05:02:09.483Z,7.45
2018-01-27T05:04:37.796Z,7.16
2018-01-27T05:07:06.104Z,6.95
2018-01-27T05:09:34.409Z,6.93
2018-01-27T05:12:02.706Z,7.04
2018-01-27T05:14:30.987Z,6.99
2018-01-27T05:16:59.308Z,7.05
2018-01-27T05:19:27.630Z,7.02
2018-01-27T05:21:55.907Z,7.11
2018-01-27T05:24:24.203Z,6.84
2018-01-27T05:26:52.471Z,6.82
2018-01-27T05:29:20.804Z,6.96
2018-01-27T05:31:49.119Z,7.08
2018-01-27T05:34:17.442Z,7.11
2018-01-27T05:36:45.739Z,7.17
2018-01-27T05:39:14.041Z,7.13
2018-01-27T05:41:42.350Z,6.94
2018-01-27T05:44:10.622Z,6.92
2018-01-27T05:46:38.947Z,7.04
2018-01-27T05:49:08.144Z,7.15
2018-01-27T05:51:36.450Z,7.16
2018-01-27T05:54:04.733Z,7.22
2018-01-27T05:56:33.039Z,7.16
2018-01-27T05:59:01.320Z,6.98
2018-01-27T06:01:29.624Z,7.11
2018-01-27T06:03:57.911Z,7.11
2018-01-27T06:06:26.223Z,6.77
2018-01-27T06:08:54.508Z,6.84
2018-01-27T06:11:22.801Z,6.95
2018-01-27T06:13:51.095Z,6.84
2018-01-27T06:16:19.425Z,6.96
2018-01-27T06:18:47.695Z,7.00
2018-01-27T06:21:16.011Z,6.98
2018-01-27T06:23:44.283Z,6.73
2018-01-27T06:26:12.554Z,6.69
2018-01-27T06:28:40.839Z,6.81
2018-01-27T06:31:09.110Z,6.69
2018-01-27T06:33:37.461Z,6.47
2018-01-27T06:36:05.761Z,6.66
2018-01-27T06:38:34.126Z,6.61
2018-01-27T06:41:02.395Z,6.55
2018-01-27T06:43:30.727Z,6.61
2018-01-27T06:45:59.059Z,6.65
2018-01-27T06:48:27.343Z,6.70
2018-01-27T06:50:56.208Z,6.86
2018-01-27T06:53:24.497Z,6.80
2018-01-27T06:55:52.840Z,6.82
2018-01-27T06:58:21.054Z,6.83
2018-01-27T07:00:49.403Z,6.81
2018-01-27T07:03:17.694Z,6.71
2018-01-27T07:05:46.004Z,6.58
2018-01-27T07:08:14.273Z,6.62
2018-01-27T07:10:42.582Z,6.68
2018-01-27T07:13:10.875Z,6.76
2018-01-27T07:15:39.172Z,6.72
2018-01-27T07:18:07.505Z,6.70
2018-01-27T07:20:35.775Z,6.70
2018-01-27T07:23:05.118Z,6.68
2018-01-27T07:25:33.368Z,6.63
2018-01-27T07:28:01.684Z,6.68
2018-01-27T07:30:29.962Z,6.69
2018-01-27T07:32:58.291Z,6.65
2018-01-27T07:35:26.618Z,6.70
2018-01-27T07:37:54.905Z,6.57
2018-01-27T07:40:23.211Z,6.56
2018-01-27T07:42:51.561Z,6.56
2018-01-27T07:45:19.835Z,6.52
2018-01-27T07:47:48.136Z,6.58
2018-01-27T07:50:16.438Z,6.63
2018-01-27T07:52:44.767Z,6.56
2018-01-27T07:55:13.091Z,6.66
2018-01-27T07:57:41.422Z,6.70
2018-01-27T08:00:09.725Z,6.67
2018-01-27T08:02:38.017Z,6.61
2018-01-27T08:05:06.284Z,6.62
2018-01-27T08:07:34.608Z,6.55
2018-01-27T08:10:02.884Z,6.53
2018-01-27T08:12:31.193Z,6.54
2018-01-27T08:14:59.522Z,6.40
2018-01-27T08:17:27.770Z,6.03
2018-01-27T08:19:56.144Z,5.84
2018-01-27T08:22:24.380Z,5.82
2018-01-27T08:24:52.676Z,6.09
2018-01-27T08:27:21.178Z,6.36
2018-01-27T08:29:49.919Z,6.25
2018-01-27T08:32:18.267Z,6.18
2018-01-27T08:34:46.618Z,6.10
2018-01-27T08:37:15.859Z,5.86
2018-01-27T08:39:44.135Z,5.80
2018-01-27T08:42:12.471Z,5.99
2018-01-27T08:44:40.703Z,6.05
2018-01-27T08:47:09.018Z,5.91
2018-01-27T08:49:37.290Z,5.82
2018-01-27T08:52:05.628Z,5.74
2018-01-27T08:54:33.913Z,5.75
2018-01-27T08:57:02.222Z,5.71
2018-01-27T08:59:30.530Z,6.02
2018-01-27T09:01:58.861Z,5.83
2018-01-27T09:04:27.155Z,5.66
2018-01-27T09:06:55.430Z,5.55
2018-01-27T09:09:24.290Z,5.58
2018-01-27T09:11:52.692Z,5.49
2018-01-27T09:14:21.012Z,5.52
2018-01-27T09:16:49.476Z,5.55
2018-01-27T09:19:17.679Z,5.68
2018-01-27T09:21:45.987Z,5.61
2018-01-27T09:24:14.255Z,5.78
2018-01-27T09:26:42.556Z,5.81
2018-01-27T09:29:10.872Z,5.82
2018-01-27T09:31:39.163Z,5.89
2018-01-27T09:34:07.584Z,6.19
2018-01-27T09:36:35.913Z,6.51
2018-01-27T09:39:04.210Z,6.70
2018-01-27T09:41:33.458Z,6.77
2018-01-27T09:44:01.771Z,6.77
2018-01-27T09:46:30.081Z,7.04
2018-01-27T09:48:59.393Z,7.26
2018-01-27T09:51:27.712Z,6.93
2018-01-27T09:53:56.005Z,6.63
2018-01-27T09:56:24.270Z,6.31
2018-01-27T09:58:52.559Z,6.22
2018-01-27T10:01:20.871Z,6.15
2018-01-27T10:03:49.146Z,6.38
2018-01-27T10:06:17.497Z,6.29
2018-01-27T10:08:45.763Z,6.26
2018-01-27T10:11:14.061Z,6.21
2018-01-27T10:13:42.378Z,6.19
2018-01-27T10:16:10.666Z,6.57
2018-01-27T10:18:38.975Z,6.76
2018-01-27T10:21:07.318Z,6.91
2018-01-27T10:23:35.619Z,7.14
2018-01-27T10:26:03.902Z,7.29
2018-01-27T10:28:32.161Z,7.39
2018-01-27T10:31:00.648Z,7.34
2018-01-27T10:33:28.908Z,7.32
2018-01-27T10:35:57.205Z,7.18
2018-01-27T10:38:25.487Z,7.22
2018-01-27T10:40:53.823Z,7.32
2018-01-27T10:43:22.125Z,7.33
2018-01-27T10:45:50.407Z,7.31
2018-01-27T10:48:18.744Z,7.21
2018-01-27T10:50:47.103Z,7.39
2018-01-27T10:53:16.032Z,7.46
2018-01-27T10:55:44.346Z,7.69
2018-01-27T10:58:13.192Z,7.72
2018-01-27T11:00:41.518Z,7.51
2018-01-27T11:03:09.865Z,7.59
2018-01-27T11:05:38.141Z,7.76
2018-01-27T11:08:06.506Z,7.71
2018-01-27T11:10:34.786Z,7.69
2018-01-27T11:13:03.111Z,7.85
2018-01-27T11:15:31.383Z,7.77
2018-01-27T11:17:59.695Z,7.80
2018-01-27T11:20:28.019Z,7.87
2018-01-27T11:22:56.344Z,7.96
2018-01-27T11:25:24.618Z,7.91
2018-01-27T11:27:52.922Z,7.97
2018-01-27T11:30:21.224Z,8.12
2018-01-27T11:32:49.507Z,8.20
2018-01-27T11:35:17.823Z,8.15
2018-01-27T11:37:46.952Z,8.20
2018-01-27T11:40:15.475Z,8.39
2018-01-27T11:42:43.781Z,8.40
2018-01-27T11:45:12.135Z,8.34
2018-01-27T11:47:40.407Z,8.35
2018-01-27T11:50:08.853Z,8.34
2018-01-27T11:52:37.100Z,8.25
2018-01-27T11:55:06.494Z,8.34
2018-01-27T11:57:36.478Z,8.38
2018-01-27T12:00:04.919Z,8.39
2018-01-27T12:02:33.247Z,8.45
2018-01-27T12:05:01.650Z,8.34
2018-01-27T12:07:29.938Z,8.39
2018-01-27T12:10:00.152Z,8.53
2018-01-27T12:12:30.775Z,7.81
2018-01-27T12:14:59.062Z,8.38
2018-01-27T12:17:27.415Z,8.41
2018-01-27T12:19:55.729Z,8.35
2018-01-27T12:22:24.806Z,8.26
2018-01-27T12:24:53.175Z,8.16
2018-01-27T12:27:21.452Z,8.10
2018-01-27T12:29:49.796Z,8.17
2018-01-27T12:32:19.065Z,8.18
2018-01-27T12:34:47.330Z,8.26
2018-01-27T12:37:15.676Z,8.40
2018-01-27T12:39:43.938Z,8.56
2018-01-27T12:42:13.540Z,8.44
2018-01-27T12:44:41.816Z,8.38
2018-01-27T12:47:10.327Z,8.54
2018-01-27T12:49:38.719Z,8.61
2018-01-27T12:52:07.062Z,8.60
2018-01-27T12:54:35.360Z,8.54
2018-01-27T12:57:04.296Z,8.50
2018-01-27T12:59:32.593Z,8.49
2018-01-27T13:02:00.872Z,8.17
2018-01-27T13:04:29.192Z,8.29
2018-01-27T13:06:57.512Z,8.51
2018-01-27T13:09:25.830Z,8.58
2018-01-27T13:11:55.200Z,8.51
2018-01-27T13:14:23.495Z,8.49
2018-01-27T13:16:51.787Z,8.39
2018-01-27T13:19:20.074Z,8.20
2018-01-27T13:21:48.371Z,8.16
2018-01-27T13:24:16.709Z,8.27
2018-01-27T13:26:44.976Z,8.49
2018-01-27T13:29:13.361Z,8.35
2018-01-27T13:31:41.639Z,8.31
2018-01-27T13:34:09.979Z,8.43
2018-01-27T13:36:38.390Z,8.62
2018-01-27T13:39:06.795Z,8.65
2018-01-27T13:41:35.120Z,8.69
2018-01-27T13:44:03.394Z,8.73
2018-01-27T13:46:31.709Z,8.81
2018-01-27T13:48:59.976Z,8.73
2018-01-27T13:51:28.291Z,8.46
2018-01-27T13:53:56.582Z,8.50
2018-01-27T13:56:24.894Z,8.42
2018-01-27T13:58:53.219Z,8.25
2018-01-27T14:01:22.095Z,8.32
2018-01-27T14:03:52.983Z,8.43
2018-01-27T14:06:21.386Z,8.59
2018-01-27T14:08:49.816Z,8.78
2018-01-27T14:11:18.115Z,8.60
2018-01-27T14:13:46.455Z,8.61
2018-01-27T14:16:14.779Z,8.64
2018-01-27T14:18:43.059Z,8.49
2018-01-27T14:21:11.375Z,8.45
2018-01-27T14:23:39.649Z,8.75
2018-01-27T14:26:08.029Z,8.88
2018-01-27T14:28:36.400Z,8.51
2018-01-27T14:31:04.699Z,8.36
2018-01-27T14:33:32.985Z,8.21
2018-01-27T14:36:01.280Z,8.14
2018-01-27T14:38:29.663Z,8.20
2018-01-27T14:40:58.863Z,8.38
2018-01-27T14:43:27.161Z,8.38
2018-01-27T14:45:55.470Z,8.38
2018-01-27T14:48:23.759Z,8.39
2018-01-27T14:50:52.460Z,8.24
2018-01-27T14:53:20.825Z,8.32
2018-01-27T14:55:49.071Z,8.36
2018-01-27T14:58:17.395Z,8.20
2018-01-27T15:00:45.712Z,8.13
2018-01-27T15:03:14.059Z,8.21
2018-01-27T15:05:42.397Z,8.24
2018-01-27T15:08:10.798Z,8.19
2018-01-27T15:10:39.271Z,8.14
2018-01-27T15:13:08.364Z,8.20
2018-01-27T15:15:36.680Z,8.10
2018-01-27T15:18:04.995Z,8.37
2018-01-27T15:20:33.323Z,8.47
2018-01-27T15:23:01.881Z,8.43
2018-01-27T15:25:30.180Z,8.38
2018-01-27T15:27:58.534Z,8.35
2018-01-27T15:30:26.868Z,8.18
2018-01-27T15:32:55.132Z,8.21
2018-01-27T15:35:23.428Z,8.29
2018-01-27T15:37:51.706Z,8.34
2018-01-27T15:40:20.135Z,8.31
2018-01-27T15:42:48.454Z,8.20
2018-01-27T15:45:16.741Z,7.93
2018-01-27T15:47:45.094Z,8.04
2018-01-27T15:50:20.452Z,7.97
2018-01-27T15:52:48.726Z,7.95
2018-01-27T15:55:17.054Z,8.00
2018-01-27T15:57:45.366Z,7.99
2018-01-27T16:00:13.643Z,8.17
2018-01-27T16:02:41.943Z,8.38
2018-01-27T16:05:11.100Z,8.45
2018-01-27T16:07:39.444Z,8.41
2018-01-27T16:10:07.763Z,8.20
2018-01-27T16:12:36.062Z,8.01
2018-01-27T16:15:04.322Z,7.93
2018-01-27T16:17:32.628Z,7.83
2018-01-27T16:20:00.926Z,7.98
2018-01-27T16:22:29.289Z,8.30
2018-01-27T16:24:58.230Z,8.36
2018-01-27T16:27:26.490Z,8.36
2018-01-27T16:29:54.810Z,8.33
2018-01-27T16:32:23.109Z,8.11
2018-01-27T16:34:51.391Z,8.29
2018-01-27T16:37:19.668Z,8.40
2018-01-27T16:39:47.950Z,8.46
2018-01-27T16:42:16.207Z,8.49
2018-01-27T16:44:44.503Z,8.36
2018-01-27T16:47:12.787Z,8.40
2018-01-27T16:49:41.982Z,8.57
2018-01-27T16:52:10.255Z,8.57
2018-01-27T16:54:38.569Z,8.58
2018-01-27T16:57:06.848Z,8.64
2018-01-27T16:59:35.145Z,8.61
2018-01-27T17:02:03.429Z,8.63
2018-01-27T17:04:31.696Z,8.64
2018-01-27T17:07:00.085Z,8.63
2018-01-27T17:09:28.328Z,8.73
2018-01-27T17:11:56.639Z,8.74
2018-01-27T17:14:24.945Z,8.51
2018-01-27T17:16:53.246Z,8.45
2018-01-27T17:19:21.535Z,8.47
2018-01-27T17:21:49.811Z,8.47
2018-01-27T17:24:18.126Z,8.41
2018-01-27T17:26:46.410Z,8.28
2018-01-27T17:29:14.723Z,8.31
2018-01-27T17:31:42.963Z,8.20
2018-01-27T17:34:11.271Z,8.13
2018-01-27T17:36:39.570Z,8.20
2018-01-27T17:39:07.876Z,8.29
2018-01-27T17:41:36.178Z,8.37
2018-01-27T17:44:04.457Z,8.32
2018-01-27T17:46:32.759Z,8.25
2018-01-27T17:49:01.027Z,8.08
2018-01-27T17:51:29.453Z,7.97
2018-01-27T17:53:57.736Z,8.15
2018-01-27T17:56:26.022Z,8.26
2018-01-27T17:58:54.287Z,8.21
2018-01-27T18:01:22.598Z,8.21
2018-01-27T18:03:50.859Z,8.09
2018-01-27T18:06:19.176Z,8.11
2018-01-27T18:08:47.468Z,8.21
2018-01-27T18:11:16.192Z,8.22
2018-01-27T18:13:44.471Z,8.30
2018-01-27T18:16:13.040Z,8.22
2018-01-27T18:18:41.334Z,8.33
2018-01-27T18:21:09.610Z,8.31
2018-01-27T18:23:37.902Z,8.33
2018-01-27T18:26:06.201Z,8.40
2018-01-27T18:28:34.488Z,8.46
2018-01-27T18:31:02.794Z,8.44
2018-01-27T18:33:31.074Z,8.50
2018-01-27T18:35:59.364Z,8.60
2018-01-27T18:38:27.632Z,8.70
2018-01-27T18:40:55.940Z,8.73
2018-01-27T18:43:24.722Z,8.76
2018-01-27T18:45:53.078Z,8.73
2018-01-27T18:48:21.350Z,8.68
2018-01-27T18:50:49.709Z,8.57
2018-01-27T18:53:17.961Z,8.56
2018-01-27T18:55:46.274Z,8.50
2018-01-27T18:58:14.567Z,8.38
2018-01-27T19:00:42.835Z,8.46
2018-01-27T19:03:11.127Z,8.58
2018-01-27T19:05:39.533Z,8.61
2018-01-27T19:08:07.838Z,8.64
2018-01-27T19:10:36.086Z,8.68
2018-01-27T19:13:04.363Z,8.63
2018-01-27T19:15:32.686Z,8.66
2018-01-27T19:18:01.050Z,8.67
2018-01-27T19:20:29.379Z,8.78
2018-01-27T19:22:57.649Z,8.82
2018-01-27T19:25:25.939Z,8.60
2018-01-27T19:27:54.558Z,8.65
2018-01-27T19:30:22.842Z,8.60
2018-01-27T19:32:51.155Z,8.68
2018-01-27T19:35:19.419Z,8.70
2018-01-27T19:37:47.768Z,8.71
2018-01-27T19:40:16.062Z,8.59
2018-01-27T19:42:44.367Z,8.58
2018-01-27T19:45:12.667Z,8.69
2018-01-27T19:47:41.046Z,8.60
2018-01-27T19:50:09.327Z,8.69
2018-01-27T19:52:37.628Z,8.57
2018-01-27T19:55:05.895Z,8.59
2018-01-27T19:57:34.537Z,8.63
2018-01-27T20:00:02.822Z,8.54
2018-01-27T20:02:31.226Z,8.44
2018-01-27T20:04:59.590Z,8.57
2018-01-27T20:07:27.871Z,8.64
2018-01-27T20:09:56.185Z,8.45
2018-01-27T20:12:24.479Z,8.53
2018-01-27T20:14:52.779Z,8.50
2018-01-27T20:17:21.052Z,8.47
2018-01-27T20:19:49.369Z,8.47
2018-01-27T20:22:17.646Z,8.42
2018-01-27T20:24:45.955Z,8.42
2018-01-27T20:27:14.253Z,8.35
2018-01-27T20:29:42.528Z,8.44
2018-01-27T20:32:10.836Z,8.47
2018-01-27T20:34:39.115Z,8.47
2018-01-27T20:37:07.412Z,8.44
2018-01-27T20:39:35.785Z,8.31
2018-01-27T20:42:04.074Z,8.38
2018-01-27T20:44:32.372Z,8.33
2018-01-27T20:47:00.796Z,8.39
2018-01-27T20:49:29.139Z,8.36
2018-01-27T20:51:57.449Z,8.33
2018-01-27T20:54:25.683Z,8.35
2018-01-27T20:56:54.020Z,8.42
2018-01-27T20:59:22.311Z,8.43
2018-01-27T21:01:50.633Z,8.25
2018-01-27T21:04:18.911Z,8.27
2018-01-27T21:06:47.202Z,8.20
2018-01-27T21:09:15.470Z,8.21
2018-01-27T21:11:43.796Z,8.18
2018-01-27T21:14:12.056Z,8.23
2018-01-27T21:16:40.363Z,8.28
2018-01-27T21:19:08.644Z,8.33
2018-01-27T21:21:36.923Z,8.31
2018-01-27T21:24:05.219Z,8.35
2018-01-27T21:26:33.490Z,8.38
2018-01-27T21:29:01.802Z,8.29
2018-01-27T21:31:30.267Z,8.30
2018-01-27T21:33:58.497Z,8.31
2018-01-27T21:36:26.787Z,8.28
2018-01-27T21:38:55.068Z,8.31
2018-01-27T21:41:23.351Z,8.25
2018-01-27T21:43:51.636Z,8.22
2018-01-27T21:46:19.947Z,8.03
2018-01-27T21:48:48.211Z,8.06
2018-01-27T21:51:16.543Z,8.00
2018-01-27T21:53:44.931Z,8.03
2018-01-27T21:56:13.283Z,8.01
2018-01-27T21:58:41.552Z,8.13
2018-01-27T22:01:09.863Z,8.14
2018-01-27T22:03:38.148Z,8.10
2018-01-27T22:06:06.867Z,8.09
2018-01-27T22:08:35.285Z,8.10
2018-01-27T22:11:03.550Z,8.13
2018-01-27T22:13:31.847Z,8.09
2018-01-27T22:16:00.938Z,8.02
2018-01-27T22:18:29.232Z,8.01
2018-01-27T22:20:57.494Z,7.99
2018-01-27T22:23:25.981Z,7.99
2018-01-27T22:25:54.219Z,7.93
2018-01-27T22:28:22.533Z,8.02
2018-01-27T22:30:50.807Z,7.94
2018-01-27T22:33:19.098Z,7.98
2018-01-27T22:35:47.409Z,7.97
2018-01-27T22:38:15.669Z,7.99
2018-01-27T22:40:43.977Z,7.97
2018-01-27T22:43:12.280Z,7.94
2018-01-27T22:45:40.627Z,7.91
2018-01-27T22:48:08.932Z,7.97
2018-01-27T22:50:37.244Z,7.96
2018-01-27T22:53:05.563Z,7.94
2018-01-27T22:55:33.849Z,8.03
2018-01-27T22:58:02.159Z,7.97
2018-01-27T23:00:30.424Z,7.71
2018-01-27T23:02:58.711Z,7.84
2018-01-27T23:05:26.998Z,7.84
2018-01-27T23:07:55.299Z,7.85
2018-01-27T23:10:23.578Z,7.74
2018-01-27T23:12:51.894Z,7.87
2018-01-27T23:15:20.762Z,7.93
2018-01-27T23:17:49.088Z,7.99
2018-01-27T23:20:18.080Z,8.09
2018-01-27T23:22:46.360Z,8.03
2018-01-27T23:25:14.695Z,8.03
2018-01-27T23:27:42.976Z,8.15
2018-01-27T23:30:11.269Z,8.07
2018-01-27T23:32:39.544Z,8.08
2018-01-27T23:35:07.827Z,8.08
2018-01-27T23:37:36.111Z,7.94
2018-01-27T23:40:06.031Z,7.95
2018-01-27T23:42:34.308Z,8.00
2018-01-27T23:45:02.618Z,8.03
2018-01-27T23:47:30.911Z,8.05
2018-01-27T23:49:59.254Z,8.12
2018-01-27T23:52:27.495Z,8.10
2018-01-27T23:54:55.797Z,8.12
2018-01-27T23:57:24.141Z,8.04
2018-01-27T23:59:52.479Z,7.85
